Terminal Aerodrome Forecast
Issued by NWS

Home | Current Version | Previous Version | Text Only | Print | Product List | Glossary On
Versions: 1 2 3 4 5 6 7 8 9 10 11 12 13 14 15 16 17 18 19 20 21 22
000
FTUS43 KPAH 221729
TAFCGI
TAF
KCGI 221729Z 2218/2318 03009KT P6SM BKN035
     FM230000 34016G25KT P6SM BKN025
     FM230800 34015G23KT P6SM BKN035
     FM231500 33014G23KT P6SM BKN025=

USA.gov is the U.S. government's official web portal to all federal, state and local government web resources and services.